sensor_id;sensor_type;location;lat;lon;timestamp;P1;durP1;ratioP1;P2;durP2;ratioP2
41687;SDS011;27371;42.686;23.362;2023-05-16T00:01:43;11.73;;;10.52;;
41687;SDS011;27371;42.686;23.362;2023-05-16T00:04:09;15.18;;;10.50;;
41687;SDS011;27371;42.686;23.362;2023-05-16T00:06:34;12.75;;;11.00;;
41687;SDS011;27371;42.686;23.362;2023-05-16T00:09:00;12.10;;;10.85;;
41687;SDS011;27371;42.686;23.362;2023-05-16T00:11:25;15.32;;;12.85;;
41687;SDS011;27371;42.686;23.362;2023-05-16T00:13:51;15.25;;;13.43;;
41687;SDS011;27371;42.686;23.362;2023-05-16T00:16:17;14.98;;;12.73;;
41687;SDS011;27371;42.686;23.362;2023-05-16T00:18:45;13.98;;;11.63;;
41687;SDS011;27371;42.686;23.362;2023-05-16T00:21:11;15.10;;;12.85;;
41687;SDS011;27371;42.686;23.362;2023-05-16T00:23:36;13.95;;;11.75;;
41687;SDS011;27371;42.686;23.362;2023-05-16T00:26:02;14.32;;;12.82;;
41687;SDS011;27371;42.686;23.362;2023-05-16T00:28:31;14.65;;;12.30;;
41687;SDS011;27371;42.686;23.362;2023-05-16T00:30:56;14.93;;;13.02;;
41687;SDS011;27371;42.686;23.362;2023-05-16T00:33:22;15.30;;;12.27;;
41687;SDS011;27371;42.686;23.362;2023-05-16T00:35:47;14.55;;;11.68;;
41687;SDS011;27371;42.686;23.362;2023-05-16T00:38:13;13.70;;;11.27;;
41687;SDS011;27371;42.686;23.362;2023-05-16T00:40:38;16.80;;;11.70;;
41687;SDS011;27371;42.686;23.362;2023-05-16T00:43:04;13.45;;;11.75;;
41687;SDS011;27371;42.686;23.362;2023-05-16T00:45:30;15.95;;;12.23;;
41687;SDS011;27371;42.686;23.362;2023-05-16T00:47:55;12.88;;;11.48;;
41687;SDS011;27371;42.686;23.362;2023-05-16T00:50:21;12.48;;;10.90;;
41687;SDS011;27371;42.686;23.362;2023-05-16T00:52:46;13.60;;;11.70;;
41687;SDS011;27371;42.686;23.362;2023-05-16T00:55:12;16.17;;;11.73;;
41687;SDS011;27371;42.686;23.362;2023-05-16T00:57:38;19.67;;;12.60;;
41687;SDS011;27371;42.686;23.362;2023-05-16T01:00:05;16.25;;;13.45;;
41687;SDS011;27371;42.686;23.362;2023-05-16T01:02:34;15.02;;;11.70;;
41687;SDS011;27371;42.686;23.362;2023-05-16T01:05:00;18.02;;;13.27;;
41687;SDS011;27371;42.686;23.362;2023-05-16T01:07:29;18.02;;;12.23;;
41687;SDS011;27371;42.686;23.362;2023-05-16T01:09:55;18.58;;;12.07;;
41687;SDS011;27371;42.686;23.362;2023-05-16T01:12:39;12.93;;;11.43;;
41687;SDS011;27371;42.686;23.362;2023-05-16T01:15:14;19.20;;;11.75;;
41687;SDS011;27371;42.686;23.362;2023-05-16T01:17:52;15.73;;;11.73;;
41687;SDS011;27371;42.686;23.362;2023-05-16T01:26:17;14.45;;;11.40;;
41687;SDS011;27371;42.686;23.362;2023-05-16T01:28:46;15.40;;;11.32;;
41687;SDS011;27371;42.686;23.362;2023-05-16T01:31:13;10.85;;;9.75;;
41687;SDS011;27371;42.686;23.362;2023-05-16T01:33:39;15.65;;;10.30;;
41687;SDS011;27371;42.686;23.362;2023-05-16T01:38:49;11.60;;;9.90;;
41687;SDS011;27371;42.686;23.362;2023-05-16T01:44:16;15.05;;;10.95;;
41687;SDS011;27371;42.686;23.362;2023-05-16T01:49:22;14.27;;;10.88;;
41687;SDS011;27371;42.686;23.362;2023-05-16T01:51:53;10.80;;;9.48;;
41687;SDS011;27371;42.686;23.362;2023-05-16T01:54:24;11.35;;;9.98;;
41687;SDS011;27371;42.686;23.362;2023-05-16T01:56:54;13.52;;;9.32;;
41687;SDS011;27371;42.686;23.362;2023-05-16T01:59:20;13.27;;;9.43;;
41687;SDS011;27371;42.686;23.362;2023-05-16T02:01:48;12.40;;;9.35;;
41687;SDS011;27371;42.686;23.362;2023-05-16T02:04:13;16.65;;;10.30;;
41687;SDS011;27371;42.686;23.362;2023-05-16T02:06:40;12.82;;;10.15;;
41687;SDS011;27371;42.686;23.362;2023-05-16T02:09:06;12.98;;;9.57;;
41687;SDS011;27371;42.686;23.362;2023-05-16T02:11:32;15.50;;;10.13;;
41687;SDS011;27371;42.686;23.362;2023-05-16T02:13:58;14.77;;;11.35;;
41687;SDS011;27371;42.686;23.362;2023-05-16T02:16:23;14.90;;;9.60;;
41687;SDS011;27371;42.686;23.362;2023-05-16T02:18:49;15.98;;;9.90;;
41687;SDS011;27371;42.686;23.362;2023-05-16T02:21:15;14.10;;;9.63;;
41687;SDS011;27371;42.686;23.362;2023-05-16T02:23:40;13.80;;;9.35;;
41687;SDS011;27371;42.686;23.362;2023-05-16T02:26:05;10.68;;;8.75;;
41687;SDS011;27371;42.686;23.362;2023-05-16T02:28:31;12.13;;;9.23;;
41687;SDS011;27371;42.686;23.362;2023-05-16T02:30:57;14.73;;;9.70;;
41687;SDS011;27371;42.686;23.362;2023-05-16T02:33:24;12.68;;;9.38;;
41687;SDS011;27371;42.686;23.362;2023-05-16T02:35:51;11.35;;;8.90;;
41687;SDS011;27371;42.686;23.362;2023-05-16T02:38:16;10.35;;;9.20;;
41687;SDS011;27371;42.686;23.362;2023-05-16T02:40:42;14.77;;;8.80;;
41687;SDS011;27371;42.686;23.362;2023-05-16T02:43:07;10.75;;;8.95;;
41687;SDS011;27371;42.686;23.362;2023-05-16T02:45:34;10.73;;;8.55;;
41687;SDS011;27371;42.686;23.362;2023-05-16T02:47:59;11.10;;;8.38;;
41687;SDS011;27371;42.686;23.362;2023-05-16T02:50:25;13.40;;;8.68;;
41687;SDS011;27371;42.686;23.362;2023-05-16T02:52:50;10.30;;;8.15;;
41687;SDS011;27371;42.686;23.362;2023-05-16T02:55:16;12.45;;;7.60;;
41687;SDS011;27371;42.686;23.362;2023-05-16T02:57:41;11.50;;;8.50;;
41687;SDS011;27371;42.686;23.362;2023-05-16T03:00:07;13.88;;;7.82;;
41687;SDS011;27371;42.686;23.362;2023-05-16T03:02:35;10.55;;;7.82;;
41687;SDS011;27371;42.686;23.362;2023-05-16T03:05:01;9.88;;;8.27;;
41687;SDS011;27371;42.686;23.362;2023-05-16T03:07:28;11.63;;;7.75;;
41687;SDS011;27371;42.686;23.362;2023-05-16T03:09:55;12.77;;;8.07;;
41687;SDS011;27371;42.686;23.362;2023-05-16T03:12:21;12.57;;;8.85;;
41687;SDS011;27371;42.686;23.362;2023-05-16T03:14:46;11.50;;;7.47;;
41687;SDS011;27371;42.686;23.362;2023-05-16T03:17:12;10.30;;;8.25;;
41687;SDS011;27371;42.686;23.362;2023-05-16T03:19:37;10.48;;;7.63;;
41687;SDS011;27371;42.686;23.362;2023-05-16T03:22:03;13.05;;;8.93;;
41687;SDS011;27371;42.686;23.362;2023-05-16T03:24:29;12.35;;;7.72;;
41687;SDS011;27371;42.686;23.362;2023-05-16T03:26:54;10.00;;;7.53;;
41687;SDS011;27371;42.686;23.362;2023-05-16T03:29:20;10.95;;;8.85;;
41687;SDS011;27371;42.686;23.362;2023-05-16T03:31:45;10.93;;;8.07;;
41687;SDS011;27371;42.686;23.362;2023-05-16T03:34:11;15.05;;;9.35;;
41687;SDS011;27371;42.686;23.362;2023-05-16T03:36:37;12.05;;;9.05;;
41687;SDS011;27371;42.686;23.362;2023-05-16T03:39:03;10.15;;;8.77;;
41687;SDS011;27371;42.686;23.362;2023-05-16T03:41:29;11.50;;;8.95;;
41687;SDS011;27371;42.686;23.362;2023-05-16T03:43:54;17.63;;;9.93;;
41687;SDS011;27371;42.686;23.362;2023-05-16T03:46:20;14.45;;;9.02;;
41687;SDS011;27371;42.686;23.362;2023-05-16T03:48:45;13.18;;;9.55;;
41687;SDS011;27371;42.686;23.362;2023-05-16T03:51:11;17.08;;;10.25;;
41687;SDS011;27371;42.686;23.362;2023-05-16T03:53:36;16.00;;;10.45;;
41687;SDS011;27371;42.686;23.362;2023-05-16T03:56:02;13.40;;;10.30;;
41687;SDS011;27371;42.686;23.362;2023-05-16T03:58:28;12.02;;;9.43;;
41687;SDS011;27371;42.686;23.362;2023-05-16T04:00:53;15.55;;;9.63;;
41687;SDS011;27371;42.686;23.362;2023-05-16T04:03:19;12.15;;;10.00;;
41687;SDS011;27371;42.686;23.362;2023-05-16T04:05:45;14.23;;;9.95;;
41687;SDS011;27371;42.686;23.362;2023-05-16T04:08:10;16.35;;;10.23;;
41687;SDS011;27371;42.686;23.362;2023-05-16T04:10:36;13.75;;;10.02;;
41687;SDS011;27371;42.686;23.362;2023-05-16T04:13:01;13.13;;;10.20;;
41687;SDS011;27371;42.686;23.362;2023-05-16T04:15:27;12.15;;;10.38;;
41687;SDS011;27371;42.686;23.362;2023-05-16T04:17:52;14.95;;;10.85;;
41687;SDS011;27371;42.686;23.362;2023-05-16T04:20:18;16.02;;;12.02;;
41687;SDS011;27371;42.686;23.362;2023-05-16T04:22:43;14.00;;;10.68;;
41687;SDS011;27371;42.686;23.362;2023-05-16T04:25:10;13.15;;;11.15;;
41687;SDS011;27371;42.686;23.362;2023-05-16T04:27:36;13.82;;;9.52;;
41687;SDS011;27371;42.686;23.362;2023-05-16T04:30:02;10.60;;;9.23;;
41687;SDS011;27371;42.686;23.362;2023-05-16T04:32:28;16.40;;;9.98;;
41687;SDS011;27371;42.686;23.362;2023-05-16T04:34:54;11.93;;;9.95;;
41687;SDS011;27371;42.686;23.362;2023-05-16T04:37:19;15.80;;;10.27;;
41687;SDS011;27371;42.686;23.362;2023-05-16T04:39:45;15.85;;;9.65;;
41687;SDS011;27371;42.686;23.362;2023-05-16T04:42:11;14.40;;;10.52;;
41687;SDS011;27371;42.686;23.362;2023-05-16T04:44:37;17.67;;;10.90;;
41687;SDS011;27371;42.686;23.362;2023-05-16T04:47:02;16.27;;;10.65;;
41687;SDS011;27371;42.686;23.362;2023-05-16T04:49:28;16.85;;;10.65;;
41687;SDS011;27371;42.686;23.362;2023-05-16T04:51:54;16.17;;;10.45;;
41687;SDS011;27371;42.686;23.362;2023-05-16T04:54:19;13.05;;;10.05;;
41687;SDS011;27371;42.686;23.362;2023-05-16T04:56:45;13.90;;;10.50;;
41687;SDS011;27371;42.686;23.362;2023-05-16T04:59:10;15.63;;;11.00;;
41687;SDS011;27371;42.686;23.362;2023-05-16T05:01:35;13.27;;;10.25;;
41687;SDS011;27371;42.686;23.362;2023-05-16T05:04:01;17.90;;;9.95;;
41687;SDS011;27371;42.686;23.362;2023-05-16T05:06:27;22.17;;;10.30;;
41687;SDS011;27371;42.686;23.362;2023-05-16T05:08:52;14.65;;;10.35;;
41687;SDS011;27371;42.686;23.362;2023-05-16T05:11:18;16.50;;;10.10;;
41687;SDS011;27371;42.686;23.362;2023-05-16T05:13:45;15.77;;;11.40;;
41687;SDS011;27371;42.686;23.362;2023-05-16T05:16:10;14.05;;;10.63;;
41687;SDS011;27371;42.686;23.362;2023-05-16T05:18:36;15.52;;;10.65;;
41687;SDS011;27371;42.686;23.362;2023-05-16T05:21:01;16.05;;;10.70;;
41687;SDS011;27371;42.686;23.362;2023-05-16T05:23:26;11.85;;;9.45;;
41687;SDS011;27371;42.686;23.362;2023-05-16T05:25:52;14.32;;;9.68;;
41687;SDS011;27371;42.686;23.362;2023-05-16T05:28:18;14.43;;;10.00;;
41687;SDS011;27371;42.686;23.362;2023-05-16T05:30:43;14.65;;;10.15;;
41687;SDS011;27371;42.686;23.362;2023-05-16T05:33:10;13.65;;;10.15;;
41687;SDS011;27371;42.686;23.362;2023-05-16T05:35:36;16.92;;;10.98;;
41687;SDS011;27371;42.686;23.362;2023-05-16T05:38:01;13.30;;;10.20;;
41687;SDS011;27371;42.686;23.362;2023-05-16T05:40:28;14.25;;;10.48;;
41687;SDS011;27371;42.686;23.362;2023-05-16T05:42:54;22.60;;;11.02;;
41687;SDS011;27371;42.686;23.362;2023-05-16T05:45:19;22.00;;;11.13;;
41687;SDS011;27371;42.686;23.362;2023-05-16T05:47:45;16.83;;;10.73;;
41687;SDS011;27371;42.686;23.362;2023-05-16T05:50:10;20.98;;;10.80;;
41687;SDS011;27371;42.686;23.362;2023-05-16T05:52:37;17.35;;;9.95;;
41687;SDS011;27371;42.686;23.362;2023-05-16T05:55:02;13.65;;;9.65;;
41687;SDS011;27371;42.686;23.362;2023-05-16T05:57:28;17.65;;;9.82;;
41687;SDS011;27371;42.686;23.362;2023-05-16T05:59:54;13.77;;;9.88;;
41687;SDS011;27371;42.686;23.362;2023-05-16T06:02:19;13.77;;;9.77;;
41687;SDS011;27371;42.686;23.362;2023-05-16T06:04:45;18.23;;;10.30;;
41687;SDS011;27371;42.686;23.362;2023-05-16T06:07:10;14.20;;;9.50;;
41687;SDS011;27371;42.686;23.362;2023-05-16T06:09:36;15.43;;;10.10;;
41687;SDS011;27371;42.686;23.362;2023-05-16T06:12:01;11.95;;;9.52;;
41687;SDS011;27371;42.686;23.362;2023-05-16T06:14:28;10.90;;;8.85;;
41687;SDS011;27371;42.686;23.362;2023-05-16T06:16:54;16.23;;;10.20;;
41687;SDS011;27371;42.686;23.362;2023-05-16T06:19:19;13.90;;;9.05;;
41687;SDS011;27371;42.686;23.362;2023-05-16T06:21:45;15.90;;;9.27;;
41687;SDS011;27371;42.686;23.362;2023-05-16T06:24:10;15.25;;;9.25;;
41687;SDS011;27371;42.686;23.362;2023-05-16T06:26:36;16.17;;;9.45;;
41687;SDS011;27371;42.686;23.362;2023-05-16T06:29:01;18.15;;;9.50;;
41687;SDS011;27371;42.686;23.362;2023-05-16T06:31:27;24.70;;;9.75;;
41687;SDS011;27371;42.686;23.362;2023-05-16T06:33:53;17.98;;;9.80;;
41687;SDS011;27371;42.686;23.362;2023-05-16T06:36:18;20.42;;;9.05;;
41687;SDS011;27371;42.686;23.362;2023-05-16T06:38:43;18.00;;;9.45;;
41687;SDS011;27371;42.686;23.362;2023-05-16T06:41:09;12.82;;;8.30;;
41687;SDS011;27371;42.686;23.362;2023-05-16T06:43:35;15.68;;;8.85;;
41687;SDS011;27371;42.686;23.362;2023-05-16T06:46:00;17.23;;;9.05;;
41687;SDS011;27371;42.686;23.362;2023-05-16T06:48:26;13.27;;;8.65;;
41687;SDS011;27371;42.686;23.362;2023-05-16T06:50:52;16.55;;;9.40;;
41687;SDS011;27371;42.686;23.362;2023-05-16T06:53:18;11.48;;;8.35;;
41687;SDS011;27371;42.686;23.362;2023-05-16T06:55:43;12.23;;;9.13;;
41687;SDS011;27371;42.686;23.362;2023-05-16T06:58:09;11.55;;;8.80;;
41687;SDS011;27371;42.686;23.362;2023-05-16T07:00:35;15.77;;;9.13;;
41687;SDS011;27371;42.686;23.362;2023-05-16T07:03:01;13.75;;;8.63;;
41687;SDS011;27371;42.686;23.362;2023-05-16T07:05:27;16.63;;;7.95;;
41687;SDS011;27371;42.686;23.362;2023-05-16T07:07:56;11.18;;;8.00;;
41687;SDS011;27371;42.686;23.362;2023-05-16T07:10:22;14.70;;;8.48;;
41687;SDS011;27371;42.686;23.362;2023-05-16T07:12:47;12.75;;;8.30;;
41687;SDS011;27371;42.686;23.362;2023-05-16T07:15:13;13.98;;;7.55;;
41687;SDS011;27371;42.686;23.362;2023-05-16T07:17:38;11.73;;;7.70;;
41687;SDS011;27371;42.686;23.362;2023-05-16T07:20:05;11.13;;;7.07;;
41687;SDS011;27371;42.686;23.362;2023-05-16T07:22:31;15.45;;;7.38;;
41687;SDS011;27371;42.686;23.362;2023-05-16T07:24:56;11.68;;;7.85;;
41687;SDS011;27371;42.686;23.362;2023-05-16T07:27:25;8.57;;;6.90;;
41687;SDS011;27371;42.686;23.362;2023-05-16T07:29:50;12.68;;;7.30;;
41687;SDS011;27371;42.686;23.362;2023-05-16T07:32:16;14.02;;;7.78;;
41687;SDS011;27371;42.686;23.362;2023-05-16T07:34:42;11.98;;;7.10;;
41687;SDS011;27371;42.686;23.362;2023-05-16T07:37:07;13.50;;;7.95;;
41687;SDS011;27371;42.686;23.362;2023-05-16T07:39:37;10.75;;;7.35;;
41687;SDS011;27371;42.686;23.362;2023-05-16T07:42:06;12.68;;;7.07;;
41687;SDS011;27371;42.686;23.362;2023-05-16T07:44:32;11.70;;;7.60;;
41687;SDS011;27371;42.686;23.362;2023-05-16T07:46:58;12.10;;;7.75;;
41687;SDS011;27371;42.686;23.362;2023-05-16T07:49:24;11.27;;;7.15;;
41687;SDS011;27371;42.686;23.362;2023-05-16T07:51:49;12.45;;;7.10;;
41687;SDS011;27371;42.686;23.362;2023-05-16T07:54:15;12.43;;;7.70;;
41687;SDS011;27371;42.686;23.362;2023-05-16T07:56:40;12.32;;;8.30;;
41687;SDS011;27371;42.686;23.362;2023-05-16T07:59:06;13.38;;;7.30;;
41687;SDS011;27371;42.686;23.362;2023-05-16T08:01:32;11.68;;;6.95;;
41687;SDS011;27371;42.686;23.362;2023-05-16T08:03:57;10.45;;;7.40;;
41687;SDS011;27371;42.686;23.362;2023-05-16T08:06:23;16.48;;;7.65;;
41687;SDS011;27371;42.686;23.362;2023-05-16T08:08:49;15.05;;;7.82;;
41687;SDS011;27371;42.686;23.362;2023-05-16T08:11:14;11.10;;;7.50;;
41687;SDS011;27371;42.686;23.362;2023-05-16T08:13:40;14.60;;;8.07;;
41687;SDS011;27371;42.686;23.362;2023-05-16T08:16:06;13.13;;;8.00;;
41687;SDS011;27371;42.686;23.362;2023-05-16T08:18:31;11.82;;;7.88;;
41687;SDS011;27371;42.686;23.362;2023-05-16T08:20:57;15.13;;;7.63;;
41687;SDS011;27371;42.686;23.362;2023-05-16T08:23:22;11.90;;;7.72;;
41687;SDS011;27371;42.686;23.362;2023-05-16T08:25:48;17.00;;;8.13;;
41687;SDS011;27371;42.686;23.362;2023-05-16T08:28:14;12.93;;;7.75;;
41687;SDS011;27371;42.686;23.362;2023-05-16T08:30:39;11.55;;;7.90;;
41687;SDS011;27371;42.686;23.362;2023-05-16T08:33:05;17.10;;;7.38;;
41687;SDS011;27371;42.686;23.362;2023-05-16T08:35:31;12.63;;;7.30;;
41687;SDS011;27371;42.686;23.362;2023-05-16T08:37:57;10.88;;;7.95;;
41687;SDS011;27371;42.686;23.362;2023-05-16T08:40:24;13.70;;;7.32;;
41687;SDS011;27371;42.686;23.362;2023-05-16T08:42:51;16.83;;;7.55;;
41687;SDS011;27371;42.686;23.362;2023-05-16T08:45:17;12.05;;;6.75;;
41687;SDS011;27371;42.686;23.362;2023-05-16T08:47:43;15.68;;;7.82;;
41687;SDS011;27371;42.686;23.362;2023-05-16T08:50:12;13.45;;;7.53;;
41687;SDS011;27371;42.686;23.362;2023-05-16T08:52:39;12.93;;;7.80;;
41687;SDS011;27371;42.686;23.362;2023-05-16T08:55:06;12.93;;;7.10;;
41687;SDS011;27371;42.686;23.362;2023-05-16T08:57:33;9.05;;;7.13;;
41687;SDS011;27371;42.686;23.362;2023-05-16T08:59:59;14.95;;;7.30;;
41687;SDS011;27371;42.686;23.362;2023-05-16T09:02:26;13.07;;;7.38;;
41687;SDS011;27371;42.686;23.362;2023-05-16T09:04:52;13.68;;;6.78;;
41687;SDS011;27371;42.686;23.362;2023-05-16T09:07:21;12.02;;;6.85;;
41687;SDS011;27371;42.686;23.362;2023-05-16T09:09:46;10.75;;;6.15;;
41687;SDS011;27371;42.686;23.362;2023-05-16T09:12:12;13.68;;;6.60;;
41687;SDS011;27371;42.686;23.362;2023-05-16T09:14:37;13.68;;;6.65;;
41687;SDS011;27371;42.686;23.362;2023-05-16T09:17:03;10.27;;;6.70;;
41687;SDS011;27371;42.686;23.362;2023-05-16T09:19:37;12.57;;;6.50;;
41687;SDS011;27371;42.686;23.362;2023-05-16T09:22:05;16.27;;;6.53;;
41687;SDS011;27371;42.686;23.362;2023-05-16T09:24:35;12.30;;;5.90;;
41687;SDS011;27371;42.686;23.362;2023-05-16T09:27:09;8.82;;;5.95;;
41687;SDS011;27371;42.686;23.362;2023-05-16T09:29:35;15.73;;;6.90;;
41687;SDS011;27371;42.686;23.362;2023-05-16T09:32:14;9.05;;;5.53;;
41687;SDS011;27371;42.686;23.362;2023-05-16T09:34:44;11.80;;;6.55;;
41687;SDS011;27371;42.686;23.362;2023-05-16T09:37:13;9.25;;;6.35;;
41687;SDS011;27371;42.686;23.362;2023-05-16T09:39:44;12.60;;;6.90;;
41687;SDS011;27371;42.686;23.362;2023-05-16T09:42:18;14.48;;;6.43;;
41687;SDS011;27371;42.686;23.362;2023-05-16T09:44:53;10.88;;;5.85;;
41687;SDS011;27371;42.686;23.362;2023-05-16T09:47:20;15.30;;;6.35;;
41687;SDS011;27371;42.686;23.362;2023-05-16T09:49:47;13.90;;;6.53;;
41687;SDS011;27371;42.686;23.362;2023-05-16T09:52:16;10.45;;;5.97;;
41687;SDS011;27371;42.686;23.362;2023-05-16T09:54:43;9.15;;;5.60;;
41687;SDS011;27371;42.686;23.362;2023-05-16T09:57:10;13.70;;;5.20;;
41687;SDS011;27371;42.686;23.362;2023-05-16T09:59:39;11.07;;;5.63;;
41687;SDS011;27371;42.686;23.362;2023-05-16T10:02:05;11.63;;;5.75;;
41687;SDS011;27371;42.686;23.362;2023-05-16T10:04:34;10.00;;;5.70;;
41687;SDS011;27371;42.686;23.362;2023-05-16T10:07:01;9.73;;;5.53;;
41687;SDS011;27371;42.686;23.362;2023-05-16T10:09:33;10.52;;;5.55;;
41687;SDS011;27371;42.686;23.362;2023-05-16T10:12:01;14.13;;;5.95;;
41687;SDS011;27371;42.686;23.362;2023-05-16T10:14:34;8.95;;;5.10;;
41687;SDS011;27371;42.686;23.362;2023-05-16T10:17:02;10.25;;;5.72;;
41687;SDS011;27371;42.686;23.362;2023-05-16T10:19:30;12.73;;;5.30;;
41687;SDS011;27371;42.686;23.362;2023-05-16T10:21:58;13.10;;;6.00;;
41687;SDS011;27371;42.686;23.362;2023-05-16T10:24:30;12.60;;;5.50;;
41687;SDS011;27371;42.686;23.362;2023-05-16T10:27:08;12.88;;;6.28;;
41687;SDS011;27371;42.686;23.362;2023-05-16T10:29:34;14.48;;;5.47;;
41687;SDS011;27371;42.686;23.362;2023-05-16T10:32:01;11.40;;;5.43;;
41687;SDS011;27371;42.686;23.362;2023-05-16T10:34:27;14.95;;;5.43;;
41687;SDS011;27371;42.686;23.362;2023-05-16T10:36:53;7.63;;;5.45;;
41687;SDS011;27371;42.686;23.362;2023-05-16T10:39:19;13.68;;;6.32;;
41687;SDS011;27371;42.686;23.362;2023-05-16T10:41:46;10.15;;;5.22;;
41687;SDS011;27371;42.686;23.362;2023-05-16T10:44:13;12.82;;;5.90;;
41687;SDS011;27371;42.686;23.362;2023-05-16T10:46:41;8.73;;;5.28;;
41687;SDS011;27371;42.686;23.362;2023-05-16T10:49:23;9.25;;;5.18;;
41687;SDS011;27371;42.686;23.362;2023-05-16T10:54:43;10.40;;;5.35;;
41687;SDS011;27371;42.686;23.362;2023-05-16T10:57:22;11.73;;;5.18;;
41687;SDS011;27371;42.686;23.362;2023-05-16T10:59:48;9.38;;;5.22;;
41687;SDS011;27371;42.686;23.362;2023-05-16T11:02:20;11.80;;;5.20;;
41687;SDS011;27371;42.686;23.362;2023-05-16T11:04:48;12.95;;;5.80;;
41687;SDS011;27371;42.686;23.362;2023-05-16T11:07:16;13.85;;;5.60;;
41687;SDS011;27371;42.686;23.362;2023-05-16T11:09:43;24.38;;;8.32;;
41687;SDS011;27371;42.686;23.362;2023-05-16T11:12:09;8.38;;;5.40;;
41687;SDS011;27371;42.686;23.362;2023-05-16T11:14:39;14.95;;;5.45;;
41687;SDS011;27371;42.686;23.362;2023-05-16T11:17:12;13.30;;;6.28;;
41687;SDS011;27371;42.686;23.362;2023-05-16T11:27:19;16.92;;;5.57;;
41687;SDS011;27371;42.686;23.362;2023-05-16T11:29:50;11.45;;;5.72;;
41687;SDS011;27371;42.686;23.362;2023-05-16T11:32:19;19.30;;;5.47;;
41687;SDS011;27371;42.686;23.362;2023-05-16T11:34:46;10.98;;;5.75;;
41687;SDS011;27371;42.686;23.362;2023-05-16T11:37:13;14.95;;;5.55;;
41687;SDS011;27371;42.686;23.362;2023-05-16T11:39:39;12.45;;;5.38;;
41687;SDS011;27371;42.686;23.362;2023-05-16T11:42:05;10.02;;;5.32;;
41687;SDS011;27371;42.686;23.362;2023-05-16T11:44:31;11.15;;;5.43;;
41687;SDS011;27371;42.686;23.362;2023-05-16T11:46:56;11.90;;;5.47;;
41687;SDS011;27371;42.686;23.362;2023-05-16T11:49:22;8.27;;;5.10;;
41687;SDS011;27371;42.686;23.362;2023-05-16T11:51:47;10.90;;;5.30;;
41687;SDS011;27371;42.686;23.362;2023-05-16T11:54:15;10.27;;;5.00;;
41687;SDS011;27371;42.686;23.362;2023-05-16T11:56:43;14.77;;;6.07;;
41687;SDS011;27371;42.686;23.362;2023-05-16T11:59:09;15.55;;;6.38;;
41687;SDS011;27371;42.686;23.362;2023-05-16T12:01:36;17.48;;;6.28;;
41687;SDS011;27371;42.686;23.362;2023-05-16T12:04:09;10.68;;;5.53;;
41687;SDS011;27371;42.686;23.362;2023-05-16T12:06:36;21.20;;;6.30;;
41687;SDS011;27371;42.686;23.362;2023-05-16T12:09:03;23.67;;;7.03;;
41687;SDS011;27371;42.686;23.362;2023-05-16T12:11:40;21.30;;;6.70;;
41687;SDS011;27371;42.686;23.362;2023-05-16T12:14:11;14.45;;;5.70;;
41687;SDS011;27371;42.686;23.362;2023-05-16T12:16:38;10.95;;;5.82;;
41687;SDS011;27371;42.686;23.362;2023-05-16T12:19:06;13.50;;;5.90;;
41687;SDS011;27371;42.686;23.362;2023-05-16T12:21:33;14.75;;;5.95;;
41687;SDS011;27371;42.686;23.362;2023-05-16T12:23:59;15.10;;;5.47;;
41687;SDS011;27371;42.686;23.362;2023-05-16T12:26:28;10.68;;;5.18;;
41687;SDS011;27371;42.686;23.362;2023-05-16T12:28:57;10.40;;;5.07;;
41687;SDS011;27371;42.686;23.362;2023-05-16T12:31:37;12.43;;;5.65;;
41687;SDS011;27371;42.686;23.362;2023-05-16T12:34:04;11.27;;;5.22;;
41687;SDS011;27371;42.686;23.362;2023-05-16T12:36:38;18.13;;;5.78;;
41687;SDS011;27371;42.686;23.362;2023-05-16T12:39:04;19.35;;;6.50;;
41687;SDS011;27371;42.686;23.362;2023-05-16T12:41:29;10.88;;;4.57;;
41687;SDS011;27371;42.686;23.362;2023-05-16T12:46:46;16.52;;;5.70;;
41687;SDS011;27371;42.686;23.362;2023-05-16T12:49:18;11.93;;;5.03;;
41687;SDS011;27371;42.686;23.362;2023-05-16T12:51:47;9.60;;;5.22;;
41687;SDS011;27371;42.686;23.362;2023-05-16T12:54:17;13.77;;;6.93;;
41687;SDS011;27371;42.686;23.362;2023-05-16T12:56:43;12.30;;;6.05;;
41687;SDS011;27371;42.686;23.362;2023-05-16T12:59:09;13.10;;;6.43;;
41687;SDS011;27371;42.686;23.362;2023-05-16T13:01:36;10.60;;;6.13;;
41687;SDS011;27371;42.686;23.362;2023-05-16T13:04:02;10.32;;;5.97;;
41687;SDS011;27371;42.686;23.362;2023-05-16T13:06:28;11.65;;;6.97;;
41687;SDS011;27371;42.686;23.362;2023-05-16T13:08:54;11.80;;;6.82;;
41687;SDS011;27371;42.686;23.362;2023-05-16T13:11:20;15.20;;;6.38;;
41687;SDS011;27371;42.686;23.362;2023-05-16T13:13:46;11.32;;;5.72;;
41687;SDS011;27371;42.686;23.362;2023-05-16T13:16:11;15.65;;;7.00;;
41687;SDS011;27371;42.686;23.362;2023-05-16T13:18:37;13.73;;;6.32;;
41687;SDS011;27371;42.686;23.362;2023-05-16T13:21:02;16.65;;;6.28;;
41687;SDS011;27371;42.686;23.362;2023-05-16T13:23:28;9.50;;;5.05;;
41687;SDS011;27371;42.686;23.362;2023-05-16T13:25:54;17.05;;;6.10;;
41687;SDS011;27371;42.686;23.362;2023-05-16T13:28:20;12.82;;;5.85;;
41687;SDS011;27371;42.686;23.362;2023-05-16T13:30:46;20.13;;;6.50;;
41687;SDS011;27371;42.686;23.362;2023-05-16T13:33:11;18.42;;;6.00;;
41687;SDS011;27371;42.686;23.362;2023-05-16T13:35:37;15.07;;;6.55;;
41687;SDS011;27371;42.686;23.362;2023-05-16T13:38:02;18.40;;;5.68;;
41687;SDS011;27371;42.686;23.362;2023-05-16T13:40:28;15.93;;;5.43;;
41687;SDS011;27371;42.686;23.362;2023-05-16T13:42:54;14.15;;;5.45;;
41687;SDS011;27371;42.686;23.362;2023-05-16T13:45:20;14.52;;;5.43;;
41687;SDS011;27371;42.686;23.362;2023-05-16T13:47:46;11.70;;;6.53;;
41687;SDS011;27371;42.686;23.362;2023-05-16T13:50:12;12.38;;;5.38;;
41687;SDS011;27371;42.686;23.362;2023-05-16T13:52:37;12.50;;;5.57;;
41687;SDS011;27371;42.686;23.362;2023-05-16T13:55:03;12.05;;;6.28;;
41687;SDS011;27371;42.686;23.362;2023-05-16T13:57:29;13.77;;;7.32;;
41687;SDS011;27371;42.686;23.362;2023-05-16T13:59:55;19.42;;;6.93;;
41687;SDS011;27371;42.686;23.362;2023-05-16T14:02:21;17.15;;;5.93;;
41687;SDS011;27371;42.686;23.362;2023-05-16T14:04:47;17.70;;;6.55;;
41687;SDS011;27371;42.686;23.362;2023-05-16T14:07:12;20.17;;;7.10;;
41687;SDS011;27371;42.686;23.362;2023-05-16T14:09:38;16.02;;;6.47;;
41687;SDS011;27371;42.686;23.362;2023-05-16T14:12:04;12.68;;;5.93;;
41687;SDS011;27371;42.686;23.362;2023-05-16T14:14:31;12.88;;;6.25;;
41687;SDS011;27371;42.686;23.362;2023-05-16T14:16:57;17.90;;;7.80;;
41687;SDS011;27371;42.686;23.362;2023-05-16T14:19:23;18.00;;;7.60;;
41687;SDS011;27371;42.686;23.362;2023-05-16T14:21:49;19.83;;;8.00;;
41687;SDS011;27371;42.686;23.362;2023-05-16T14:24:14;16.05;;;6.60;;
41687;SDS011;27371;42.686;23.362;2023-05-16T14:26:40;17.27;;;6.88;;
41687;SDS011;27371;42.686;23.362;2023-05-16T14:29:05;13.48;;;6.70;;
41687;SDS011;27371;42.686;23.362;2023-05-16T14:31:31;15.95;;;8.02;;
41687;SDS011;27371;42.686;23.362;2023-05-16T14:33:57;12.95;;;6.90;;
41687;SDS011;27371;42.686;23.362;2023-05-16T14:36:23;16.98;;;7.93;;
41687;SDS011;27371;42.686;23.362;2023-05-16T14:38:49;20.52;;;7.60;;
41687;SDS011;27371;42.686;23.362;2023-05-16T14:41:15;18.08;;;7.10;;
41687;SDS011;27371;42.686;23.362;2023-05-16T14:43:58;15.15;;;7.38;;